Time;durP1;ratioP1;P1;durP2;ratioP2;P2;SDS_P1;SDS_P2;PMS_P1;PMS_P2;Temp;Humidity;BMP_temperature;BMP_pressure;BME280_temperature;BME280_humidity;BME280_pressure;Samples;Min_cycle;Max_cycle;Signal;HPM_P1;HPM_P2
2022/05/22 00:01:53;;;;;;;2.13;1.92;;;14.80;99.90;;;15.05;78.94;101275.19;5167829;28;20133;-70
2022/05/22 00:04:25;;;;;;;2.42;1.83;;;14.80;99.90;;;15.06;78.59;101270.84;5167934;28;20050;-71
2022/05/22 00:06:58;;;;;;;3.60;2.08;;;14.80;99.90;;;15.07;78.58;101259.50;5168106;28;20057;-70
2022/05/22 00:09:29;;;;;;;3.42;1.60;;;14.80;99.90;;;15.07;78.56;101267.38;5167186;28;20051;-69
2022/05/22 00:12:02;;;;;;;3.55;1.90;;;14.80;99.90;;;15.06;78.64;101265.59;5167413;28;20053;-71
2022/05/22 00:14:36;;;;;;;4.32;2.40;;;14.80;99.90;;;15.06;78.56;101253.38;5167692;28;20066;-70
2022/05/22 00:17:09;;;;;;;4.70;1.83;;;14.80;99.90;;;15.07;78.36;101262.13;5167728;28;20475;-70
2022/05/22 00:19:41;;;;;;;2.60;1.95;;;14.80;99.90;;;15.07;78.48;101256.88;5164348;28;20070;-70
2022/05/22 00:22:13;;;;;;;3.33;2.00;;;14.80;99.90;;;15.07;78.33;101256.88;5155069;28;20042;-71
2022/05/22 00:24:45;;;;;;;1.90;1.67;;;14.80;99.90;;;15.06;78.35;101256.00;5147770;28;20057;-70
2022/05/22 00:27:17;;;;;;;4.68;2.03;;;14.80;99.90;;;15.06;78.20;101255.09;5147149;28;20051;-70
2022/05/22 00:29:51;;;;;;;3.38;2.03;;;14.80;99.90;;;15.04;77.92;101251.53;5146860;28;20047;-71
2022/05/22 00:32:23;;;;;;;3.03;1.73;;;14.80;99.90;;;15.02;77.87;101269.91;5141929;28;20050;-70
2022/05/22 00:34:55;;;;;;;3.53;2.00;;;14.80;99.90;;;15.01;77.46;101251.50;5131563;28;20511;-70
2022/05/22 00:37:27;;;;;;;6.25;2.35;;;14.80;99.90;;;14.97;77.39;101240.00;5143964;28;20082;-71
2022/05/22 00:40:00;;;;;;;5.10;2.42;;;14.70;99.90;;;14.91;77.52;101230.25;5146273;28;20050;-71
2022/05/22 00:42:32;;;;;;;4.10;2.33;;;14.70;99.90;;;14.87;77.38;101232.78;5139506;28;20046;-70
2022/05/22 00:45:07;;;;;;;6.78;2.47;;;14.70;99.90;;;14.83;77.54;101229.19;5138180;28;20086;-71
2022/05/22 00:47:40;;;;;;;5.10;2.30;;;14.60;99.90;;;14.81;77.48;101238.75;5136200;28;20511;-71
2022/05/22 00:50:12;;;;;;;5.07;2.15;;;14.60;99.90;;;14.81;77.86;101230.00;5136438;28;20054;-71
2022/05/22 00:52:50;;;;;;;5.50;2.42;;;14.60;99.90;;;14.75;78.05;101222.88;5130939;28;20043;-70
2022/05/22 00:55:26;;;;;;;4.72;2.47;;;14.60;99.90;;;14.72;78.61;101212.28;5144945;28;20050;-72
2022/05/22 00:58:03;;;;;;;4.78;2.25;;;14.50;99.90;;;14.70;79.15;101202.59;5156086;28;21612;-71
2022/05/22 01:00:36;;;;;;;4.78;2.38;;;14.50;99.90;;;14.68;79.24;101199.94;5128026;28;20098;-70
2022/05/22 01:03:29;;;;;;;4.75;2.65;;;14.50;99.90;;;14.68;78.98;101205.19;5135135;28;20455;-70
2022/05/22 01:06:05;;;;;;;4.40;2.30;;;14.50;99.90;;;14.68;78.82;101207.81;5131975;28;20058;-72
2022/05/22 01:08:39;;;;;;;3.05;1.95;;;14.50;99.90;;;14.66;78.78;101207.75;5135691;28;20061;-71
2022/05/22 01:11:15;;;;;;;4.65;2.03;;;14.50;99.90;;;14.66;78.92;101220.00;5139131;28;20465;-70
2022/05/22 01:13:52;;;;;;;4.65;2.15;;;14.50;99.90;;;14.62;79.05;101216.44;5139041;28;20580;-71
2022/05/22 01:16:25;;;;;;;4.72;2.38;;;14.40;99.90;;;14.61;79.14;101219.91;5129955;28;20055;-70
2022/05/22 01:18:58;;;;;;;3.42;2.10;;;14.40;99.90;;;14.58;79.27;101225.06;5134905;28;20447;-71
2022/05/22 01:21:33;;;;;;;5.32;2.70;;;14.40;99.90;;;14.56;79.32;101225.88;5151498;28;20525;-70
2022/05/22 01:24:08;;;;;;;4.60;2.40;;;14.30;99.90;;;14.54;79.46;101224.94;5163829;28;20050;-70
2022/05/22 01:26:40;;;;;;;3.63;1.95;;;14.30;99.90;;;14.50;79.55;101231.84;5166206;28;20050;-70
2022/05/22 01:29:12;;;;;;;4.43;2.35;;;14.30;99.90;;;14.46;79.32;101240.47;5166113;28;20050;-71
2022/05/22 01:31:44;;;;;;;3.60;2.28;;;14.20;99.90;;;14.41;79.68;101231.59;5166283;28;20046;-71
2022/05/22 01:34:17;;;;;;;6.30;2.75;;;14.20;99.90;;;14.37;79.54;101233.22;5166180;28;20050;-71
2022/05/22 01:36:49;;;;;;;4.10;2.70;;;14.20;99.90;;;14.36;79.41;101228.84;5165977;28;20415;-70
2022/05/22 01:39:22;;;;;;;4.35;2.97;;;14.20;99.90;;;14.33;79.31;101234.00;5166092;28;20054;-71
2022/05/22 01:41:54;;;;;;;5.95;2.63;;;14.20;99.90;;;14.28;79.37;101219.88;5166071;28;20046;-69
2022/05/22 01:44:26;;;;;;;4.72;2.42;;;14.10;99.90;;;14.22;79.49;101222.34;5161323;28;20061;-70
2022/05/22 01:46:58;;;;;;;4.35;2.53;;;14.10;99.90;;;14.18;79.95;101228.34;5153996;28;20051;-70
2022/05/22 01:49:30;;;;;;;4.38;2.40;;;14.00;99.90;;;14.16;80.19;101224.81;5145658;28;20073;-70
2022/05/22 01:52:03;;;;;;;4.50;2.33;;;14.00;99.90;;;14.14;80.51;101231.72;5154040;28;20404;-70
2022/05/22 01:54:36;;;;;;;3.03;2.53;;;14.00;99.90;;;14.15;80.89;101228.28;5146268;28;20047;-70
2022/05/22 01:57:08;;;;;;;3.10;2.13;;;14.00;99.90;;;14.14;81.52;101221.22;5145566;28;20101;-70
2022/05/22 01:59:40;;;;;;;4.60;2.92;;;13.90;99.90;;;14.15;81.64;101212.56;5145699;28;20047;-71
2022/05/22 02:02:12;;;;;;;4.65;2.55;;;13.90;99.90;;;14.18;81.60;101212.63;5145123;28;20058;-71
2022/05/22 02:04:44;;;;;;;3.35;2.28;;;14.00;99.90;;;14.20;81.47;101210.91;5145467;28;20055;-71
2022/05/22 02:10:08;;;;;;;4.10;2.33;;;14.10;99.90;;;14.26;81.00;101221.56;5144735;28;20101;-71
2022/05/22 02:12:40;;;;;;;4.35;2.20;;;14.00;99.90;;;14.27;81.13;101220.72;5145106;28;20054;-71
2022/05/22 02:15:13;;;;;;;4.32;2.35;;;14.10;99.90;;;14.26;81.27;101211.06;5145307;28;20061;-71
2022/05/22 02:17:45;;;;;;;7.07;3.70;;;14.10;99.90;;;14.23;81.49;101207.50;5144993;28;20051;-70
2022/05/22 02:20:17;;;;;;;4.10;2.25;;;14.00;99.90;;;14.19;81.25;101201.28;5145020;28;20492;-70
2022/05/22 02:22:53;;;;;;;5.38;2.65;;;14.00;99.90;;;14.18;81.39;101201.25;5145341;28;20069;-70
2022/05/22 02:25:30;;;;;;;3.20;2.47;;;14.00;99.90;;;14.16;81.67;101198.59;5145498;28;20050;-70
2022/05/22 02:28:04;;;;;;;3.60;2.50;;;14.00;99.90;;;14.15;81.64;101204.69;5145315;28;20057;-70
2022/05/22 02:30:39;;;;;;;3.88;2.90;;;14.00;99.90;;;14.15;81.95;101202.06;5145498;28;20671;-70
2022/05/22 02:33:11;;;;;;;3.55;2.40;;;14.00;99.90;;;14.15;82.52;101204.69;5145136;28;20047;-71
2022/05/22 02:35:43;;;;;;;3.20;2.30;;;14.00;99.90;;;14.16;82.50;101206.47;5144935;28;20042;-71
2022/05/22 02:38:16;;;;;;;4.78;2.30;;;14.00;99.90;;;14.17;82.79;101200.34;5144903;28;20352;-70
2022/05/22 02:40:49;;;;;;;5.03;2.53;;;14.00;99.90;;;14.19;83.19;101188.16;5145329;28;20385;-70
2022/05/22 02:43:21;;;;;;;3.55;2.25;;;14.00;99.90;;;14.23;83.25;101178.66;5145194;28;20051;-71
2022/05/22 02:45:54;;;;;;;3.20;2.03;;;14.00;99.90;;;14.24;83.24;101160.34;5145004;28;20507;-70
2022/05/22 02:48:26;;;;;;;5.70;2.85;;;14.00;99.90;;;14.22;83.03;101156.81;5144864;28;20054;-70
2022/05/22 02:50:58;;;;;;;7.93;2.92;;;14.00;99.90;;;14.22;82.48;101156.81;5145247;28;20141;-70
2022/05/22 02:53:30;;;;;;;5.40;2.95;;;14.00;99.90;;;14.22;82.67;101148.03;5144933;28;20066;-71
2022/05/22 02:56:09;;;;;;;4.13;2.53;;;14.00;99.90;;;14.22;82.68;101150.66;5145025;28;20057;-70
2022/05/22 02:58:41;;;;;;;4.05;2.38;;;14.00;99.90;;;14.22;82.80;101140.19;5144482;28;20046;-70
2022/05/22 03:01:13;;;;;;;3.97;2.20;;;14.00;99.90;;;14.23;82.85;101147.19;5144680;28;20057;-70
2022/05/22 03:03:45;;;;;;;3.67;2.20;;;14.00;99.90;;;14.21;82.51;101149.75;5144798;28;20495;-70
2022/05/22 03:09:08;;;;;;;5.78;2.78;;;14.00;99.90;;;14.13;82.41;101140.81;5144471;28;20133;-70
2022/05/22 03:11:41;;;;;;;4.25;2.63;;;14.00;99.90;;;14.11;82.41;101139.91;5144931;28;20055;-70
2022/05/22 03:14:13;;;;;;;3.33;2.20;;;14.00;99.90;;;14.10;82.51;101146.88;5144611;28;20062;-70
2022/05/22 03:16:45;;;;;;;5.50;2.75;;;13.90;99.90;;;14.08;82.37;101142.41;5144883;28;20054;-70
2022/05/22 03:19:17;;;;;;;4.47;2.55;;;13.90;99.90;;;14.04;82.11;101154.56;5144262;28;20061;-70
2022/05/22 03:21:50;;;;;;;5.03;2.75;;;13.90;99.90;;;13.99;82.61;101157.91;5144756;28;20047;-70
2022/05/22 03:24:22;;;;;;;3.95;2.35;;;13.80;99.90;;;13.93;82.76;101157.75;5148439;28;20051;-70
2022/05/22 03:26:55;;;;;;;5.63;2.30;;;13.80;99.90;;;13.88;82.76;101164.59;5148691;28;20464;-70
2022/05/22 03:29:27;;;;;;;4.45;2.28;;;13.80;99.90;;;13.82;83.35;101160.06;5148240;28;20046;-71
2022/05/22 03:31:59;;;;;;;4.40;2.63;;;13.70;99.90;;;13.77;83.65;101159.09;5148657;28;20042;-70
2022/05/22 03:34:31;;;;;;;5.15;2.50;;;13.60;99.90;;;13.71;83.54;101156.28;5148448;28;20066;-70
2022/05/22 03:37:05;;;;;;;5.13;2.83;;;13.60;99.90;;;13.66;84.15;101148.28;5158014;28;20054;-71
2022/05/22 03:39:37;;;;;;;5.35;2.88;;;13.50;99.90;;;13.64;84.76;101139.53;5154222;28;20055;-70
2022/05/22 03:42:11;;;;;;;4.20;2.33;;;13.50;99.90;;;13.63;84.77;101137.75;5147929;28;20047;-70
2022/05/22 03:44:43;;;;;;;4.43;2.35;;;13.50;99.90;;;13.63;85.16;101150.84;5148200;28;20059;-70
2022/05/22 03:47:15;;;;;;;4.55;2.50;;;13.50;99.90;;;13.63;85.17;101143.00;5148227;28;20055;-70
2022/05/22 03:49:47;;;;;;;7.93;2.17;;;13.50;99.90;;;13.61;84.99;101139.41;5147744;28;20051;-69
2022/05/22 03:52:19;;;;;;;4.65;2.85;;;13.50;99.90;;;13.55;85.17;101134.00;5147925;28;20051;-70
2022/05/22 03:54:51;;;;;;;4.22;2.80;;;13.40;99.90;;;13.52;85.36;101134.81;5148278;28;20051;-70
2022/05/22 03:57:25;;;;;;;7.05;2.83;;;13.40;99.90;;;13.52;85.20;101133.94;5148376;28;20423;-71
2022/05/22 03:59:57;;;;;;;5.68;3.67;;;13.40;99.90;;;13.48;85.20;101127.72;5147776;28;20050;-71
2022/05/22 04:02:29;;;;;;;6.05;3.15;;;13.40;99.90;;;13.47;85.58;101131.16;5147937;28;20051;-71
2022/05/22 04:05:01;;;;;;;5.15;2.72;;;13.30;99.90;;;13.47;85.58;101132.91;5147478;28;20054;-70
2022/05/22 04:07:37;;;;;;;4.15;2.88;;;13.30;99.90;;;13.47;85.58;101135.53;5147700;28;20046;-71
2022/05/22 04:10:11;;;;;;;4.72;2.75;;;13.30;99.90;;;13.48;85.76;101137.28;5147352;28;20047;-72
2022/05/22 04:12:46;;;;;;;5.55;3.13;;;13.30;99.90;;;13.51;85.98;101127.81;5147517;28;20496;-71
2022/05/22 04:15:21;;;;;;;7.30;2.80;;;13.40;99.90;;;13.53;85.64;101126.09;5147418;28;20055;-70
2022/05/22 04:17:53;;;;;;;5.13;2.88;;;13.40;99.90;;;13.55;85.60;101126.16;5147297;28;20054;-71
2022/05/22 04:20:26;;;;;;;4.22;2.85;;;13.40;99.90;;;13.58;85.54;101123.63;5147240;28;20046;-71
2022/05/22 04:25:55;;;;;;;4.25;2.65;;;13.40;99.90;;;13.61;85.25;101123.69;5147324;28;20412;-70
2022/05/22 04:28:32;;;;;;;4.05;2.65;;;13.50;99.90;;;13.63;85.12;101126.34;5147169;28;20050;-71
2022/05/22 04:31:04;;;;;;;3.42;2.15;;;13.40;99.90;;;13.64;85.03;101123.81;5147584;28;20057;-71
2022/05/22 04:33:36;;;;;;;4.50;2.70;;;13.50;99.90;;;13.66;85.06;101126.44;5147128;28;20480;-71
2022/05/22 04:36:08;;;;;;;2.88;2.33;;;13.50;99.90;;;13.71;85.29;101125.75;5147017;28;20433;-70
2022/05/22 04:38:40;;;;;;;4.60;2.38;;;13.50;99.90;;;13.76;85.26;101129.38;5146677;28;20055;-71
2022/05/22 04:41:12;;;;;;;5.38;2.45;;;13.60;99.90;;;13.80;85.16;101120.72;5147176;28;20055;-70
2022/05/22 04:43:45;;;;;;;7.68;2.78;;;13.60;99.90;;;13.86;85.00;101130.50;5146972;28;20046;-71
2022/05/22 04:46:17;;;;;;;4.95;2.63;;;13.70;99.90;;;13.92;85.14;101132.41;5146854;28;20058;-71
2022/05/22 04:48:49;;;;;;;4.80;2.70;;;13.70;99.90;;;13.99;84.71;101123.84;5146893;28;20051;-71
2022/05/22 04:51:21;;;;;;;3.88;2.38;;;13.80;99.90;;;14.06;84.40;101133.63;5147260;28;20050;-71
2022/05/22 04:53:54;;;;;;;5.13;3.03;;;13.90;99.90;;;14.14;84.35;101137.34;5146999;28;20396;-71
2022/05/22 04:56:27;;;;;;;4.47;2.63;;;14.00;99.90;;;14.21;84.18;101131.41;5146664;28;20054;-70
2022/05/22 04:59:00;;;;;;;5.40;3.13;;;14.00;99.90;;;14.25;83.42;101130.63;5146382;28;20051;-70
2022/05/22 05:01:32;;;;;;;6.25;3.63;;;14.10;99.90;;;14.28;82.61;101138.59;5147101;28;20057;-71
2022/05/22 05:04:05;;;;;;;4.05;2.80;;;14.10;99.90;;;14.38;82.73;101135.34;5146696;28;20484;-72
2022/05/22 05:06:37;;;;;;;6.28;3.25;;;14.20;99.90;;;14.63;83.32;101128.09;5146843;28;20051;-71
2022/05/22 05:09:09;;;;;;;6.38;3.72;;;14.40;99.90;;;15.01;82.37;101130.72;5172618;23;20495;-70
2022/05/22 05:11:41;;;;;;;6.70;3.42;;;14.70;99.90;;;15.41;80.44;101125.44;5160136;28;20056;-69
2022/05/22 05:14:14;;;;;;;5.95;3.25;;;15.00;99.90;;;15.79;77.91;101130.63;5166545;28;20054;-70
2022/05/22 05:16:46;;;;;;;6.57;3.65;;;15.40;99.90;;;15.95;75.17;101123.88;5166565;28;20050;-69
2022/05/22 05:19:18;;;;;;;5.85;3.70;;;15.60;99.90;;;16.05;74.16;101122.31;5166218;28;20050;-69
2022/05/22 05:21:50;;;;;;;6.50;3.42;;;15.80;99.90;;;16.11;73.58;101127.69;5166522;28;20050;-69
2022/05/22 05:24:22;;;;;;;5.38;3.22;;;15.80;99.90;;;16.22;73.53;101126.09;5162361;28;20479;-70
2022/05/22 05:26:55;;;;;;;5.18;3.30;;;15.90;99.90;;;16.47;72.78;101136.19;5162800;28;20050;-70
2022/05/22 05:29:29;;;;;;;4.88;2.95;;;16.10;99.90;;;16.61;70.90;101127.63;5166548;28;20085;-70
2022/05/22 05:32:01;;;;;;;6.70;3.28;;;16.30;99.90;;;16.81;70.67;101128.81;5166682;28;20050;-70
2022/05/22 05:34:34;;;;;;;6.00;2.97;;;16.50;99.90;;;17.31;69.01;101137.44;5166468;28;20157;-70
2022/05/22 05:37:05;;;;;;;5.75;3.10;;;16.80;99.90;;;17.57;67.33;101135.13;5166261;28;20073;-70
2022/05/22 05:39:38;;;;;;;5.95;2.83;;;17.10;99.90;;;17.83;66.20;101130.16;5166339;28;20046;-70
2022/05/22 05:42:10;;;;;;;5.43;3.22;;;17.30;99.90;;;18.26;64.82;101121.78;5166553;28;20490;-70
2022/05/22 05:44:43;;;;;;;4.55;2.53;;;17.70;99.90;;;18.52;63.36;101133.44;5165944;28;20050;-70
2022/05/22 05:47:16;;;;;;;6.35;3.03;;;18.00;99.60;;;18.76;62.43;101130.09;5165853;28;20061;-70
2022/05/22 05:49:48;;;;;;;7.80;3.58;;;18.20;99.10;;;18.98;60.79;101132.00;5166132;28;20046;-70
2022/05/22 05:52:20;;;;;;;6.53;3.03;;;18.50;98.20;;;18.74;60.29;101130.97;5166231;28;20133;-70
2022/05/22 05:54:52;;;;;;;7.25;2.90;;;18.40;97.20;;;18.84;60.47;101132.78;5157795;28;20047;-70
2022/05/22 05:57:24;;;;;;;7.53;2.80;;;18.40;97.20;;;18.88;59.68;101124.91;5166170;28;20053;-70
2022/05/22 05:59:57;;;;;;;5.03;2.75;;;18.50;96.70;;;18.76;60.52;101123.94;5165658;28;20418;-71
2022/05/22 06:02:29;;;;;;;7.15;2.72;;;18.40;96.90;;;18.70;60.50;101119.50;5166044;28;20057;-71
2022/05/22 06:05:01;;;;;;;5.32;2.30;;;18.40;96.70;;;18.75;60.64;101124.81;5166193;28;20415;-70
2022/05/22 06:07:33;;;;;;;3.88;2.60;;;18.40;96.80;;;18.85;60.55;101121.38;5165887;28;20046;-71
2022/05/22 06:10:08;;;;;;;4.05;2.63;;;18.50;96.90;;;18.87;59.64;101123.13;5166001;28;20061;-71
2022/05/22 06:12:40;;;;;;;4.80;2.50;;;18.50;96.50;;;18.95;58.73;101123.19;5165541;28;20050;-70
2022/05/22 06:15:14;;;;;;;7.38;2.45;;;18.50;95.90;;;18.97;58.26;101121.41;5165836;28;20484;-71
2022/05/22 06:17:47;;;;;;;5.63;2.60;;;18.60;95.40;;;18.83;58.21;101120.47;5165770;28;20061;-71
2022/05/22 06:20:19;;;;;;;5.28;1.95;;;18.50;95.00;;;18.78;58.62;101125.72;5165416;28;20054;-70
2022/05/22 06:22:51;;;;;;;4.32;2.17;;;18.40;95.20;;;18.85;58.25;101124.91;5165346;28;20054;-71
2022/05/22 06:25:24;;;;;;;4.35;2.17;;;18.50;95.10;;;19.09;57.66;101126.78;5165533;28;20070;-70
2022/05/22 06:27:56;;;;;;;4.70;2.55;;;18.60;94.90;;;19.47;56.39;101131.34;5165585;28;20061;-71
2022/05/22 06:30:29;;;;;;;5.63;2.25;;;18.90;94.20;;;19.77;55.56;101123.56;5165147;28;20054;-70
2022/05/22 06:33:07;;;;;;;6.18;2.72;;;19.10;93.70;;;20.15;54.37;101117.44;5165399;28;20054;-71
2022/05/22 06:35:40;;;;;;;5.40;2.72;;;19.40;92.90;;;20.50;53.77;101113.94;5165647;28;20054;-70
2022/05/22 06:39:49;;;;;;;6.07;2.35;;;19.70;92.50;;;20.66;52.68;101110.38;5165116;28;20042;-71
2022/05/22 06:41:06;;;;;;;5.20;2.20;;;20.00;91.80;;;20.95;52.09;101122.69;5165256;28;20133;-70
2022/05/22 06:43:38;;;;;;;3.97;2.20;;;20.20;90.90;;;21.21;50.73;101120.84;5164815;28;20101;-69
2022/05/22 06:46:11;;;;;;;2.35;2.03;;;20.50;89.70;;;21.39;49.53;101110.19;5165214;28;20046;-70
2022/05/22 06:48:43;;;;;;;5.15;2.08;;;20.70;87.00;;;21.48;49.46;101109.25;5164555;28;20050;-70
2022/05/22 06:51:15;;;;;;;3.67;2.42;;;20.80;86.00;;;21.50;49.02;101112.78;5161885;28;20042;-70
2022/05/22 06:53:48;;;;;;;4.80;1.92;;;20.80;84.90;;;21.61;49.75;101115.38;5160652;28;20065;-68
2022/05/22 06:56:20;;;;;;;4.30;1.95;;;21.00;85.50;;;21.90;49.51;101113.41;5165392;28;20097;-59
2022/05/22 06:58:52;;;;;;;4.60;2.03;;;21.20;85.20;;;22.31;48.65;101116.72;5169069;28;20059;-58
2022/05/22 07:01:26;;;;;;;5.57;2.08;;;21.50;84.00;;;22.68;48.13;101119.88;5169218;28;20047;-61
2022/05/22 07:03:58;;;;;;;;;;;21.80;83.30;;;22.92;47.51;101121.47;5160632;28;20107;-57
2022/05/22 07:06:30;;;;;;;6.28;2.03;;;22.10;81.70;;;23.10;46.72;101128.34;5160958;28;19928;-58
2022/05/22 07:09:02;;;;;;;4.60;2.28;;;22.30;80.20;;;23.20;46.45;101125.56;5157524;28;20051;-58
2022/05/22 07:11:40;;;;;;;6.35;2.20;;;22.40;79.20;;;23.34;46.11;101125.38;5149117;28;20507;-58
2022/05/22 07:14:14;;;;;;;4.45;2.00;;;22.50;78.50;;;23.48;45.82;101120.78;5148968;28;20051;-57
2022/05/22 07:16:48;;;;;;;3.75;2.10;;;22.70;77.80;;;23.60;45.57;101126.81;5148738;28;20062;-57
2022/05/22 07:19:20;;;;;;;5.35;2.60;;;22.70;77.20;;;23.70;45.03;101115.19;5148361;28;20054;-59
2022/05/22 07:21:52;;;;;;;4.55;2.00;;;22.90;76.20;;;23.86;45.01;101113.19;5148661;28;20057;-58
2022/05/22 07:24:24;;;;;;;3.40;2.10;;;22.90;76.20;;;24.06;44.18;101111.09;5148970;28;20498;-58
2022/05/22 07:26:56;;;;;;;4.18;2.00;;;23.10;75.20;;;24.24;43.70;101101.94;5148697;28;20055;-57
2022/05/22 07:29:28;;;;;;;4.22;1.95;;;23.30;73.80;;;24.41;42.92;101099.03;5148415;28;20133;-58
2022/05/22 07:32:04;;;;;;;4.97;2.00;;;23.40;73.00;;;24.49;42.49;101097.97;5148590;28;20047;-58
2022/05/22 07:34:38;;;;;;;4.95;2.20;;;23.50;72.10;;;24.48;42.46;101095.34;5148343;28;20089;-56
2022/05/22 07:37:13;;;;;;;5.32;1.90;;;23.60;71.70;;;24.53;42.25;101089.03;5148339;28;20050;-59
2022/05/22 07:39:45;;;;;;;5.40;1.73;;;23.60;71.10;;;24.75;41.64;101093.94;5148184;28;20055;-59
2022/05/22 07:42:17;;;;;;;5.28;1.63;;;23.70;69.90;;;24.92;41.55;101097.19;5148383;28;20047;-58
2022/05/22 07:44:49;;;;;;;3.92;1.70;;;23.90;70.10;;;24.98;41.56;101083.72;5148214;28;20504;-58
2022/05/22 07:47:23;;;;;;;2.08;1.50;;;24.00;69.90;;;24.85;41.18;101093.75;5156361;28;20142;-58
2022/05/22 07:52:45;;;;;;;3.50;1.63;;;23.90;68.20;;;25.02;40.78;101093.41;5155369;28;20065;-58
2022/05/22 07:55:20;;;;;;;3.63;1.73;;;24.00;68.10;;;25.22;40.60;101086.81;5168452;28;20610;-56
2022/05/22 07:57:52;;;;;;;3.35;1.55;;;24.10;67.60;;;25.40;40.71;101089.09;5168744;28;20522;-56
2022/05/22 08:00:24;;;;;;;4.25;1.58;;;24.20;68.30;;;25.60;38.92;101078.84;5163793;28;20049;-59
2022/05/22 08:02:59;;;;;;;3.88;1.60;;;24.30;65.50;;;25.83;38.38;101073.03;5160013;28;20052;-57
2022/05/22 08:05:31;;;;;;;3.53;1.52;;;24.50;65.30;;;25.99;38.42;101068.19;5168257;28;20081;-58
2022/05/22 08:08:03;;;;;;;4.38;1.40;;;24.50;65.90;;;26.25;38.30;101070.19;5157209;28;20081;-58
2022/05/22 08:10:36;;;;;;;2.67;1.30;;;24.60;65.50;;;26.53;37.54;101070.38;5158946;28;20050;-58
2022/05/22 08:13:11;;;;;;;2.72;1.35;;;24.70;65.00;;;26.84;36.56;101061.53;5168137;28;20104;-59
2022/05/22 08:15:44;;;;;;;3.78;1.65;;;24.80;63.90;;;27.25;35.95;101058.53;5168236;28;20052;-57
2022/05/22 08:18:17;;;;;;;3.05;1.30;;;24.90;63.60;;;27.70;35.09;101060.75;5167577;28;20051;-57
2022/05/22 08:20:50;;;;;;;3.50;1.20;;;25.00;63.10;;;28.36;33.83;101048.75;5168245;28;20050;-59
2022/05/22 08:23:23;;;;;;;2.03;1.23;;;25.30;62.00;;;29.12;32.80;101054.97;5151756;28;20053;-58
2022/05/22 08:25:55;;;;;;;4.35;1.23;;;25.70;61.50;;;29.82;31.98;101044.16;5167792;28;20053;-60
2022/05/22 08:28:28;;;;;;;2.65;1.38;;;26.10;60.70;;;30.34;31.36;101054.53;5167365;28;20054;-61
2022/05/22 08:31:00;;;;;;;4.20;1.33;;;26.50;60.20;;;30.78;30.20;101049.94;5167559;28;20134;-58
2022/05/22 08:33:34;;;;;;;2.22;1.17;;;26.70;59.30;;;30.96;29.77;101049.06;5167824;28;20046;-58
2022/05/22 08:36:07;;;;;;;2.83;1.13;;;27.00;58.50;;;31.21;29.34;101045.22;5167645;28;20058;-58
2022/05/22 08:38:39;;;;;;;3.65;1.40;;;27.40;57.50;;;31.48;28.80;101051.16;5167391;28;20427;-61
2022/05/22 08:41:15;;;;;;;3.20;1.30;;;27.70;56.80;;;31.78;28.48;101049.69;5136597;28;20622;-57
2022/05/22 08:43:51;;;;;;;3.53;1.15;;;28.10;56.60;;;31.96;28.26;101042.53;5153858;28;20046;-58
2022/05/22 08:46:32;;;;;;;2.70;1.15;;;28.30;55.60;;;32.34;28.23;101045.09;5161378;28;20057;-58
2022/05/22 08:49:17;;;;;;;2.80;1.30;;;28.70;55.90;;;32.72;27.98;101031.41;5158704;28;20062;-57
2022/05/22 08:51:52;;;;;;;4.63;1.50;;;29.00;55.30;;;33.09;27.27;101027.59;5167378;28;20054;-58
2022/05/22 08:54:32;;;;;;;4.15;1.20;;;29.30;54.50;;;33.36;26.51;101030.59;5154000;28;20046;-60
2022/05/22 09:00:13;;;;;;;2.45;1.20;;;29.70;53.30;;;34.26;24.67;101031.63;5142128;28;20070;-57
2022/05/22 09:02:52;;;;;;;2.80;1.00;;;30.10;51.60;;;34.86;23.57;101027.09;5158906;28;20050;-58
2022/05/22 09:05:29;;;;;;;2.10;1.00;;;30.50;49.90;;;35.32;23.17;101020.50;5126858;28;20138;-59
2022/05/22 09:08:06;;;;;;;1.60;1.02;;;30.90;49.30;;;35.67;22.25;101028.19;5126294;28;20102;-58
2022/05/22 09:10:56;;;;;;;3.22;1.10;;;31.30;48.60;;;35.67;22.00;101011.91;5126180;28;20449;-60
2022/05/22 09:13:35;;;;;;;5.82;1.15;;;31.40;47.60;;;35.50;23.05;101014.88;5143148;28;20474;-58
2022/05/22 09:16:14;;;;;;;3.03;1.20;;;31.40;48.20;;;35.17;23.25;101007.09;5162756;28;20056;-60
2022/05/22 09:18:54;;;;;;;3.58;1.10;;;31.40;48.50;;;34.77;23.50;101015.88;5146404;28;20420;-57
2022/05/22 09:21:33;;;;;;;2.50;0.95;;;31.20;47.90;;;34.19;23.48;101005.91;5144988;28;20058;-58
2022/05/22 09:24:09;;;;;;;2.58;1.00;;;31.00;47.60;;;33.54;23.71;100994.44;5156862;28;20046;-59
2022/05/22 09:26:46;;;;;;;2.97;1.02;;;30.70;47.40;;;32.72;24.82;100985.53;5154385;28;20137;-57
2022/05/22 09:29:47;;;;;;;3.45;1.00;;;30.20;47.70;;;31.73;25.74;100980.78;5153466;28;20140;-57
2022/05/22 09:32:36;;;;;;;4.70;0.93;;;29.80;48.20;;;30.59;27.09;100979.91;5154024;28;20139;-58
2022/05/22 09:35:21;;;;;;;1.55;0.80;;;29.10;49.00;;;29.64;28.76;100977.75;5146519;28;20057;-59
2022/05/22 09:38:12;;;;;;;2.08;0.88;;;28.40;50.40;;;29.17;30.85;100985.88;5146253;28;20526;-58
2022/05/22 09:40:47;;;;;;;2.65;1.02;;;28.00;52.40;;;28.86;30.75;100970.94;5143814;28;20051;-60
2022/05/22 09:43:48;;;;;;;2.83;1.38;;;27.70;52.20;;;28.48;31.43;100971.47;5160079;28;20515;-58
2022/05/22 09:46:48;;;;;;;3.65;1.45;;;27.40;52.70;;;28.17;31.68;100977.94;5166129;28;20466;-58
2022/05/22 09:49:39;;;;;;;4.38;1.20;;;27.10;53.00;;;28.00;32.18;100974.97;5165944;28;20050;-69
2022/05/22 09:52:20;;;;;;;3.90;1.40;;;26.90;54.20;;;27.84;33.48;100978.16;5166329;28;20055;-69
2022/05/22 09:55:11;;;;;;;1.98;1.17;;;26.80;54.80;;;27.78;33.17;100970.34;5166130;28;20057;-70
2022/05/22 09:58:01;;;;;;;3.67;1.30;;;26.60;54.70;;;27.66;33.34;100973.38;5165378;28;20054;-70
2022/05/22 10:00:42;;;;;;;3.30;1.30;;;26.60;54.80;;;27.52;33.34;100963.13;5165845;28;20050;-69
2022/05/22 10:03:22;;;;;;;4.07;1.52;;;26.40;54.70;;;27.42;33.11;100959.00;5165277;28;20061;-70
2022/05/22 10:06:07;;;;;;;4.95;1.75;;;26.30;54.50;;;27.16;32.53;100965.16;5165285;28;20257;-69
2022/05/22 10:08:52;;;;;;;2.63;1.10;;;26.20;53.50;;;27.15;33.67;100958.06;5165441;28;20137;-70
2022/05/22 10:11:35;;;;;;;2.53;1.05;;;26.10;54.70;;;27.22;33.90;100956.97;5165590;28;20061;-70
2022/05/22 10:14:30;;;;;;;3.42;1.20;;;26.20;55.70;;;27.29;34.24;100963.84;5165796;28;20392;-69
2022/05/22 10:17:23;;;;;;;2.75;0.95;;;26.20;55.50;;;27.36;33.27;100961.00;5165653;28;20050;-70
2022/05/22 10:20:07;;;;;;;3.45;1.17;;;26.30;54.70;;;27.35;33.82;100953.88;5165297;28;20487;-70
2022/05/22 10:22:55;;;;;;;2.25;1.08;;;26.30;55.80;;;27.35;33.62;100957.44;5165504;28;20054;-70
2022/05/22 10:25:47;;;;;;;2.28;1.10;;;26.30;55.20;;;27.43;33.69;100960.75;5165339;28;20054;-70
2022/05/22 10:28:24;;;;;;;4.70;1.48;;;26.40;55.80;;;27.56;32.59;100959.41;5165053;28;20065;-68
2022/05/22 10:31:02;;;;;;;3.50;1.55;;;26.50;54.00;;;27.63;33.30;100959.22;5164697;28;20153;-70
2022/05/22 10:33:38;;;;;;;2.25;1.40;;;26.50;55.40;;;27.68;33.53;100950.13;5165539;28;20054;-70
2022/05/22 10:36:14;;;;;;;2.85;1.60;;;26.50;54.90;;;27.64;33.51;100939.53;5165515;28;20056;-72
2022/05/22 10:38:51;;;;;;;3.28;1.40;;;26.60;55.10;;;27.64;34.11;100940.41;5165096;28;20054;-70
2022/05/22 10:44:23;;;;;;;3.22;1.27;;;26.50;56.10;;;27.59;34.50;100937.03;5165288;28;20177;-70
2022/05/22 10:46:59;;;;;;;2.40;1.30;;;26.50;56.20;;;27.67;33.25;100928.75;5165091;28;20064;-70
2022/05/22 10:49:43;;;;;;;2.25;1.30;;;26.60;55.00;;;27.63;32.74;100927.94;5164887;28;20462;-71
2022/05/22 10:52:24;;;;;;;3.17;1.15;;;26.50;54.00;;;27.60;32.78;100925.41;5165564;28;20072;-71
2022/05/22 10:54:58;;;;;;;2.80;1.25;;;26.50;54.00;;;27.24;32.30;100922.97;5165561;28;20077;-70
2022/05/22 10:57:32;;;;;;;3.70;1.30;;;26.40;53.10;;;27.12;33.07;100915.34;5165256;28;20049;-69
2022/05/22 11:00:17;;;;;;;3.50;1.40;;;26.20;53.70;;;27.15;33.89;100909.91;5164729;28;20057;-70
2022/05/22 11:02:49;;;;;;;1.88;1.25;;;26.20;55.10;;;27.24;33.77;100909.59;5165035;28;20051;-72